sensor_id;sensor_type;location;lat;lon;timestamp;P1;durP1;ratioP1;P2;durP2;ratioP2
26806;SDS011;14380;49.910;6.792;2023-07-02T00:01:32;1.50;;;0.90;;
26806;SDS011;14380;49.910;6.792;2023-07-02T00:03:59;1.05;;;0.75;;
26806;SDS011;14380;49.910;6.792;2023-07-02T00:06:25;0.93;;;0.75;;
26806;SDS011;14380;49.910;6.792;2023-07-02T00:08:52;3.83;;;1.27;;
26806;SDS011;14380;49.910;6.792;2023-07-02T00:11:19;0.90;;;0.63;;
26806;SDS011;14380;49.910;6.792;2023-07-02T00:13:45;1.08;;;0.85;;
26806;SDS011;14380;49.910;6.792;2023-07-02T00:16:12;0.90;;;0.70;;
26806;SDS011;14380;49.910;6.792;2023-07-02T00:18:40;0.90;;;0.43;;
26806;SDS011;14380;49.910;6.792;2023-07-02T00:21:07;1.25;;;0.85;;
26806;SDS011;14380;49.910;6.792;2023-07-02T00:23:38;4.55;;;1.35;;
26806;SDS011;14380;49.910;6.792;2023-07-02T00:26:05;1.42;;;1.33;;
26806;SDS011;14380;49.910;6.792;2023-07-02T00:28:31;1.48;;;0.95;;
26806;SDS011;14380;49.910;6.792;2023-07-02T00:30:58;3.90;;;0.95;;
26806;SDS011;14380;49.910;6.792;2023-07-02T00:33:26;1.85;;;0.90;;
26806;SDS011;14380;49.910;6.792;2023-07-02T00:35:55;0.32;;;0.30;;
26806;SDS011;14380;49.910;6.792;2023-07-02T00:38:22;3.05;;;1.00;;
26806;SDS011;14380;49.910;6.792;2023-07-02T00:40:49;1.30;;;0.70;;
26806;SDS011;14380;49.910;6.792;2023-07-02T00:43:15;2.08;;;1.15;;
26806;SDS011;14380;49.910;6.792;2023-07-02T00:45:42;1.05;;;0.95;;
26806;SDS011;14380;49.910;6.792;2023-07-02T00:48:10;2.92;;;0.90;;
26806;SDS011;14380;49.910;6.792;2023-07-02T00:50:37;1.10;;;0.82;;
26806;SDS011;14380;49.910;6.792;2023-07-02T00:53:07;1.13;;;0.95;;
26806;SDS011;14380;49.910;6.792;2023-07-02T00:55:33;2.67;;;1.40;;
26806;SDS011;14380;49.910;6.792;2023-07-02T00:58:00;3.33;;;1.15;;
26806;SDS011;14380;49.910;6.792;2023-07-02T01:00:27;2.15;;;1.42;;
26806;SDS011;14380;49.910;6.792;2023-07-02T01:02:53;2.03;;;1.33;;
26806;SDS011;14380;49.910;6.792;2023-07-02T01:05:24;3.00;;;1.23;;
26806;SDS011;14380;49.910;6.792;2023-07-02T01:07:51;1.65;;;1.08;;
26806;SDS011;14380;49.910;6.792;2023-07-02T01:10:20;1.45;;;0.90;;
26806;SDS011;14380;49.910;6.792;2023-07-02T01:12:46;0.82;;;0.73;;
26806;SDS011;14380;49.910;6.792;2023-07-02T01:15:14;1.50;;;1.05;;
26806;SDS011;14380;49.910;6.792;2023-07-02T01:17:41;1.27;;;0.80;;
26806;SDS011;14380;49.910;6.792;2023-07-02T01:20:10;1.75;;;1.25;;
26806;SDS011;14380;49.910;6.792;2023-07-02T01:22:38;3.33;;;1.67;;
26806;SDS011;14380;49.910;6.792;2023-07-02T01:25:05;1.48;;;1.20;;
26806;SDS011;14380;49.910;6.792;2023-07-02T01:27:34;2.20;;;1.60;;
26806;SDS011;14380;49.910;6.792;2023-07-02T01:30:01;2.40;;;1.00;;
26806;SDS011;14380;49.910;6.792;2023-07-02T01:32:29;1.75;;;0.95;;
26806;SDS011;14380;49.910;6.792;2023-07-02T01:34:56;1.70;;;1.20;;
26806;SDS011;14380;49.910;6.792;2023-07-02T01:37:25;1.58;;;0.90;;
26806;SDS011;14380;49.910;6.792;2023-07-02T01:39:52;3.05;;;1.30;;
26806;SDS011;14380;49.910;6.792;2023-07-02T01:42:19;1.40;;;0.90;;
26806;SDS011;14380;49.910;6.792;2023-07-02T01:44:46;1.38;;;0.98;;
26806;SDS011;14380;49.910;6.792;2023-07-02T01:47:14;4.10;;;1.80;;
26806;SDS011;14380;49.910;6.792;2023-07-02T01:49:41;1.95;;;1.17;;
26806;SDS011;14380;49.910;6.792;2023-07-02T01:52:08;1.80;;;1.02;;
26806;SDS011;14380;49.910;6.792;2023-07-02T01:54:36;3.50;;;1.55;;
26806;SDS011;14380;49.910;6.792;2023-07-02T01:57:03;2.10;;;1.40;;
26806;SDS011;14380;49.910;6.792;2023-07-02T01:59:30;5.13;;;1.85;;
26806;SDS011;14380;49.910;6.792;2023-07-02T02:01:57;3.92;;;1.92;;
26806;SDS011;14380;49.910;6.792;2023-07-02T02:04:23;4.18;;;1.42;;
26806;SDS011;14380;49.910;6.792;2023-07-02T02:06:50;2.78;;;1.92;;
26806;SDS011;14380;49.910;6.792;2023-07-02T02:09:17;3.47;;;1.63;;
26806;SDS011;14380;49.910;6.792;2023-07-02T02:11:46;3.10;;;1.63;;
26806;SDS011;14380;49.910;6.792;2023-07-02T02:14:14;4.38;;;1.90;;
26806;SDS011;14380;49.910;6.792;2023-07-02T02:16:40;2.25;;;1.40;;
26806;SDS011;14380;49.910;6.792;2023-07-02T02:19:07;7.95;;;1.75;;
26806;SDS011;14380;49.910;6.792;2023-07-02T02:21:33;3.60;;;1.85;;
26806;SDS011;14380;49.910;6.792;2023-07-02T02:24:00;3.30;;;1.95;;
26806;SDS011;14380;49.910;6.792;2023-07-02T02:26:26;2.40;;;1.80;;
26806;SDS011;14380;49.910;6.792;2023-07-02T02:28:54;3.95;;;1.92;;
26806;SDS011;14380;49.910;6.792;2023-07-02T02:31:21;3.30;;;1.35;;
26806;SDS011;14380;49.910;6.792;2023-07-02T02:33:47;5.75;;;2.58;;
26806;SDS011;14380;49.910;6.792;2023-07-02T02:36:14;5.03;;;2.00;;
26806;SDS011;14380;49.910;6.792;2023-07-02T02:38:40;5.43;;;2.17;;
26806;SDS011;14380;49.910;6.792;2023-07-02T02:41:07;3.15;;;2.10;;
26806;SDS011;14380;49.910;6.792;2023-07-02T02:43:34;5.00;;;2.60;;
26806;SDS011;14380;49.910;6.792;2023-07-02T02:46:02;3.88;;;2.40;;
26806;SDS011;14380;49.910;6.792;2023-07-02T02:48:28;4.03;;;2.17;;
26806;SDS011;14380;49.910;6.792;2023-07-02T02:50:55;2.70;;;1.83;;
26806;SDS011;14380;49.910;6.792;2023-07-02T02:53:22;3.50;;;1.98;;
26806;SDS011;14380;49.910;6.792;2023-07-02T02:55:48;2.90;;;1.80;;
26806;SDS011;14380;49.910;6.792;2023-07-02T02:58:15;3.15;;;1.90;;
26806;SDS011;14380;49.910;6.792;2023-07-02T03:00:41;5.15;;;1.73;;
26806;SDS011;14380;49.910;6.792;2023-07-02T03:03:12;2.45;;;1.67;;
26806;SDS011;14380;49.910;6.792;2023-07-02T03:05:38;4.72;;;2.20;;
26806;SDS011;14380;49.910;6.792;2023-07-02T03:08:05;2.95;;;1.88;;
26806;SDS011;14380;49.910;6.792;2023-07-02T03:10:31;3.78;;;1.85;;
26806;SDS011;14380;49.910;6.792;2023-07-02T03:12:58;5.32;;;2.38;;
26806;SDS011;14380;49.910;6.792;2023-07-02T03:15:25;5.05;;;1.70;;
26806;SDS011;14380;49.910;6.792;2023-07-02T03:17:51;4.22;;;1.67;;
26806;SDS011;14380;49.910;6.792;2023-07-02T03:20:19;2.88;;;1.98;;
26806;SDS011;14380;49.910;6.792;2023-07-02T03:22:46;6.07;;;2.55;;
26806;SDS011;14380;49.910;6.792;2023-07-02T03:25:13;6.15;;;2.65;;
26806;SDS011;14380;49.910;6.792;2023-07-02T03:27:39;11.23;;;2.63;;
26806;SDS011;14380;49.910;6.792;2023-07-02T03:30:07;5.07;;;2.50;;
26806;SDS011;14380;49.910;6.792;2023-07-02T03:32:34;4.78;;;1.90;;
26806;SDS011;14380;49.910;6.792;2023-07-02T03:35:00;3.60;;;2.00;;
26806;SDS011;14380;49.910;6.792;2023-07-02T03:37:28;4.65;;;2.85;;
26806;SDS011;14380;49.910;6.792;2023-07-02T03:39:55;5.10;;;2.22;;
26806;SDS011;14380;49.910;6.792;2023-07-02T03:42:23;5.47;;;2.53;;
26806;SDS011;14380;49.910;6.792;2023-07-02T03:44:50;4.90;;;2.42;;
26806;SDS011;14380;49.910;6.792;2023-07-02T03:47:16;4.82;;;2.35;;
26806;SDS011;14380;49.910;6.792;2023-07-02T03:49:47;4.93;;;3.08;;
26806;SDS011;14380;49.910;6.792;2023-07-02T03:52:14;5.18;;;2.33;;
26806;SDS011;14380;49.910;6.792;2023-07-02T03:54:41;4.03;;;2.03;;
26806;SDS011;14380;49.910;6.792;2023-07-02T03:57:08;9.52;;;3.35;;
26806;SDS011;14380;49.910;6.792;2023-07-02T03:59:35;4.80;;;2.33;;
26806;SDS011;14380;49.910;6.792;2023-07-02T04:02:01;6.80;;;3.40;;
26806;SDS011;14380;49.910;6.792;2023-07-02T04:04:28;5.90;;;2.45;;
26806;SDS011;14380;49.910;6.792;2023-07-02T04:06:54;9.25;;;3.45;;
26806;SDS011;14380;49.910;6.792;2023-07-02T04:09:21;5.40;;;2.75;;
26806;SDS011;14380;49.910;6.792;2023-07-02T04:11:49;6.47;;;3.25;;
26806;SDS011;14380;49.910;6.792;2023-07-02T04:14:15;7.43;;;3.28;;
26806;SDS011;14380;49.910;6.792;2023-07-02T04:16:43;4.65;;;2.33;;
26806;SDS011;14380;49.910;6.792;2023-07-02T04:19:10;9.75;;;3.42;;
26806;SDS011;14380;49.910;6.792;2023-07-02T04:21:37;9.52;;;2.40;;
26806;SDS011;14380;49.910;6.792;2023-07-02T04:24:04;5.82;;;3.45;;
26806;SDS011;14380;49.910;6.792;2023-07-02T04:26:30;6.50;;;2.67;;
26806;SDS011;14380;49.910;6.792;2023-07-02T04:28:58;7.57;;;3.85;;
26806;SDS011;14380;49.910;6.792;2023-07-02T04:31:25;9.10;;;4.47;;
26806;SDS011;14380;49.910;6.792;2023-07-02T04:33:52;9.70;;;4.10;;
26806;SDS011;14380;49.910;6.792;2023-07-02T04:36:18;6.13;;;3.28;;
26806;SDS011;14380;49.910;6.792;2023-07-02T04:38:45;6.57;;;2.88;;
26806;SDS011;14380;49.910;6.792;2023-07-02T04:44:34;6.20;;;3.45;;
26806;SDS011;14380;49.910;6.792;2023-07-02T04:47:01;4.63;;;2.60;;
26806;SDS011;14380;49.910;6.792;2023-07-02T04:49:28;4.32;;;2.97;;
26806;SDS011;14380;49.910;6.792;2023-07-02T04:51:55;7.22;;;3.05;;
26806;SDS011;14380;49.910;6.792;2023-07-02T04:54:21;7.75;;;3.85;;
26806;SDS011;14380;49.910;6.792;2023-07-02T04:56:48;10.32;;;3.85;;
26806;SDS011;14380;49.910;6.792;2023-07-02T04:59:15;5.88;;;3.15;;
26806;SDS011;14380;49.910;6.792;2023-07-02T05:01:43;9.65;;;3.22;;
26806;SDS011;14380;49.910;6.792;2023-07-02T05:04:10;8.52;;;3.00;;
26806;SDS011;14380;49.910;6.792;2023-07-02T05:06:37;7.03;;;3.60;;
26806;SDS011;14380;49.910;6.792;2023-07-02T05:09:03;9.02;;;3.42;;
26806;SDS011;14380;49.910;6.792;2023-07-02T05:11:30;10.18;;;4.35;;
26806;SDS011;14380;49.910;6.792;2023-07-02T05:13:57;11.15;;;4.47;;
26806;SDS011;14380;49.910;6.792;2023-07-02T05:16:24;6.15;;;3.53;;
26806;SDS011;14380;49.910;6.792;2023-07-02T05:18:52;8.07;;;2.97;;
26806;SDS011;14380;49.910;6.792;2023-07-02T05:21:18;8.80;;;4.00;;
26806;SDS011;14380;49.910;6.792;2023-07-02T05:23:46;6.35;;;3.08;;
26806;SDS011;14380;49.910;6.792;2023-07-02T05:26:13;9.77;;;3.97;;
26806;SDS011;14380;49.910;6.792;2023-07-02T05:28:39;7.10;;;3.30;;
26806;SDS011;14380;49.910;6.792;2023-07-02T05:31:06;7.55;;;3.65;;
26806;SDS011;14380;49.910;6.792;2023-07-02T05:33:32;6.90;;;3.58;;
26806;SDS011;14380;49.910;6.792;2023-07-02T05:36:00;10.82;;;4.07;;
26806;SDS011;14380;49.910;6.792;2023-07-02T05:38:27;8.50;;;4.25;;
26806;SDS011;14380;49.910;6.792;2023-07-02T05:40:54;12.75;;;5.13;;
26806;SDS011;14380;49.910;6.792;2023-07-02T05:43:20;8.60;;;4.45;;
26806;SDS011;14380;49.910;6.792;2023-07-02T05:45:47;7.55;;;4.32;;
26806;SDS011;14380;49.910;6.792;2023-07-02T05:48:13;11.00;;;3.80;;
26806;SDS011;14380;49.910;6.792;2023-07-02T05:50:40;8.40;;;4.25;;
26806;SDS011;14380;49.910;6.792;2023-07-02T05:53:08;9.35;;;4.43;;
26806;SDS011;14380;49.910;6.792;2023-07-02T05:55:34;6.47;;;3.55;;
26806;SDS011;14380;49.910;6.792;2023-07-02T05:58:01;6.78;;;3.28;;
26806;SDS011;14380;49.910;6.792;2023-07-02T06:00:28;11.38;;;5.15;;
26806;SDS011;14380;49.910;6.792;2023-07-02T06:02:54;9.38;;;4.45;;
26806;SDS011;14380;49.910;6.792;2023-07-02T06:05:21;8.05;;;4.30;;
26806;SDS011;14380;49.910;6.792;2023-07-02T06:07:47;9.57;;;4.25;;
26806;SDS011;14380;49.910;6.792;2023-07-02T06:10:15;9.90;;;3.97;;
26806;SDS011;14380;49.910;6.792;2023-07-02T06:12:42;10.43;;;5.03;;
26806;SDS011;14380;49.910;6.792;2023-07-02T06:15:09;7.50;;;4.75;;
26806;SDS011;14380;49.910;6.792;2023-07-02T06:17:36;9.90;;;3.83;;
26806;SDS011;14380;49.910;6.792;2023-07-02T06:20:03;9.25;;;3.50;;
26806;SDS011;14380;49.910;6.792;2023-07-02T06:22:30;14.85;;;4.85;;
26806;SDS011;14380;49.910;6.792;2023-07-02T06:24:57;11.23;;;4.75;;
26806;SDS011;14380;49.910;6.792;2023-07-02T06:27:25;10.32;;;5.05;;
26806;SDS011;14380;49.910;6.792;2023-07-02T06:29:51;10.60;;;4.82;;
26806;SDS011;14380;49.910;6.792;2023-07-02T06:32:18;10.23;;;3.70;;
26806;SDS011;14380;49.910;6.792;2023-07-02T06:34:44;7.15;;;4.15;;
26806;SDS011;14380;49.910;6.792;2023-07-02T06:37:11;12.55;;;5.13;;
26806;SDS011;14380;49.910;6.792;2023-07-02T06:39:38;10.13;;;4.47;;
26806;SDS011;14380;49.910;6.792;2023-07-02T06:42:04;7.43;;;4.00;;
26806;SDS011;14380;49.910;6.792;2023-07-02T06:44:32;11.65;;;4.53;;
26806;SDS011;14380;49.910;6.792;2023-07-02T06:46:59;8.45;;;4.15;;
26806;SDS011;14380;49.910;6.792;2023-07-02T06:49:25;8.25;;;3.80;;
26806;SDS011;14380;49.910;6.792;2023-07-02T06:51:52;11.45;;;5.00;;
26806;SDS011;14380;49.910;6.792;2023-07-02T06:54:18;11.80;;;4.72;;
26806;SDS011;14380;49.910;6.792;2023-07-02T06:56:45;9.73;;;4.55;;
26806;SDS011;14380;49.910;6.792;2023-07-02T06:59:12;7.25;;;4.43;;
26806;SDS011;14380;49.910;6.792;2023-07-02T07:01:39;9.60;;;5.05;;
26806;SDS011;14380;49.910;6.792;2023-07-02T07:04:06;12.45;;;4.22;;
26806;SDS011;14380;49.910;6.792;2023-07-02T07:06:32;13.57;;;4.85;;
26806;SDS011;14380;49.910;6.792;2023-07-02T07:08:59;9.93;;;4.68;;
26806;SDS011;14380;49.910;6.792;2023-07-02T07:11:26;14.13;;;6.20;;
26806;SDS011;14380;49.910;6.792;2023-07-02T07:13:52;9.18;;;4.15;;
26806;SDS011;14380;49.910;6.792;2023-07-02T07:16:19;12.85;;;4.50;;
26806;SDS011;14380;49.910;6.792;2023-07-02T07:18:46;13.73;;;4.47;;
26806;SDS011;14380;49.910;6.792;2023-07-02T07:21:13;8.73;;;4.55;;
26806;SDS011;14380;49.910;6.792;2023-07-02T07:23:40;11.38;;;5.03;;
26806;SDS011;14380;49.910;6.792;2023-07-02T07:26:06;10.43;;;4.70;;
26806;SDS011;14380;49.910;6.792;2023-07-02T07:28:33;10.57;;;5.10;;
26806;SDS011;14380;49.910;6.792;2023-07-02T07:31:00;13.48;;;5.10;;
26806;SDS011;14380;49.910;6.792;2023-07-02T07:33:27;12.20;;;5.22;;
26806;SDS011;14380;49.910;6.792;2023-07-02T07:35:55;14.05;;;5.40;;
26806;SDS011;14380;49.910;6.792;2023-07-02T07:38:22;9.20;;;4.80;;
26806;SDS011;14380;49.910;6.792;2023-07-02T07:40:48;11.82;;;5.60;;
26806;SDS011;14380;49.910;6.792;2023-07-02T07:43:15;8.18;;;3.78;;
26806;SDS011;14380;49.910;6.792;2023-07-02T07:45:41;12.98;;;4.82;;
26806;SDS011;14380;49.910;6.792;2023-07-02T07:48:08;14.80;;;4.75;;
26806;SDS011;14380;49.910;6.792;2023-07-02T07:50:35;10.02;;;3.80;;
26806;SDS011;14380;49.910;6.792;2023-07-02T07:53:02;10.50;;;4.35;;
26806;SDS011;14380;49.910;6.792;2023-07-02T07:55:29;8.95;;;4.03;;
26806;SDS011;14380;49.910;6.792;2023-07-02T07:57:56;8.02;;;4.10;;
26806;SDS011;14380;49.910;6.792;2023-07-02T08:00:22;14.93;;;4.93;;
26806;SDS011;14380;49.910;6.792;2023-07-02T08:02:50;9.05;;;4.60;;
26806;SDS011;14380;49.910;6.792;2023-07-02T08:05:20;12.38;;;5.28;;
26806;SDS011;14380;49.910;6.792;2023-07-02T08:07:47;8.88;;;4.85;;
26806;SDS011;14380;49.910;6.792;2023-07-02T08:10:15;12.35;;;5.45;;
26806;SDS011;14380;49.910;6.792;2023-07-02T08:12:44;9.68;;;4.60;;
26806;SDS011;14380;49.910;6.792;2023-07-02T08:15:12;10.82;;;6.38;;
26806;SDS011;14380;49.910;6.792;2023-07-02T08:17:39;9.95;;;4.43;;
26806;SDS011;14380;49.910;6.792;2023-07-02T08:20:06;15.00;;;5.20;;
26806;SDS011;14380;49.910;6.792;2023-07-02T08:22:34;10.05;;;4.60;;
26806;SDS011;14380;49.910;6.792;2023-07-02T08:25:01;12.65;;;5.78;;
26806;SDS011;14380;49.910;6.792;2023-07-02T08:27:28;8.80;;;4.60;;
26806;SDS011;14380;49.910;6.792;2023-07-02T08:29:55;9.40;;;4.50;;
26806;SDS011;14380;49.910;6.792;2023-07-02T08:32:21;11.38;;;5.40;;
26806;SDS011;14380;49.910;6.792;2023-07-02T08:34:48;9.75;;;5.60;;
26806;SDS011;14380;49.910;6.792;2023-07-02T08:37:15;18.85;;;5.30;;
26806;SDS011;14380;49.910;6.792;2023-07-02T08:39:42;14.82;;;5.78;;
26806;SDS011;14380;49.910;6.792;2023-07-02T08:42:08;12.98;;;5.35;;
26806;SDS011;14380;49.910;6.792;2023-07-02T08:44:36;9.18;;;5.20;;
26806;SDS011;14380;49.910;6.792;2023-07-02T08:47:03;13.43;;;5.00;;
26806;SDS011;14380;49.910;6.792;2023-07-02T08:49:31;11.35;;;6.15;;
26806;SDS011;14380;49.910;6.792;2023-07-02T08:51:58;13.65;;;4.68;;
26806;SDS011;14380;49.910;6.792;2023-07-02T08:54:25;11.52;;;4.53;;
26806;SDS011;14380;49.910;6.792;2023-07-02T08:56:51;13.80;;;5.03;;
26806;SDS011;14380;49.910;6.792;2023-07-02T08:59:18;13.40;;;6.07;;
26806;SDS011;14380;49.910;6.792;2023-07-02T09:01:46;14.23;;;5.03;;
26806;SDS011;14380;49.910;6.792;2023-07-02T09:04:17;10.50;;;4.40;;
26806;SDS011;14380;49.910;6.792;2023-07-02T09:06:45;7.97;;;4.60;;
26806;SDS011;14380;49.910;6.792;2023-07-02T09:09:11;10.48;;;5.03;;
26806;SDS011;14380;49.910;6.792;2023-07-02T09:11:47;11.73;;;5.28;;
26806;SDS011;14380;49.910;6.792;2023-07-02T09:14:25;10.80;;;4.53;;
26806;SDS011;14380;49.910;6.792;2023-07-02T09:17:03;14.75;;;5.28;;
26806;SDS011;14380;49.910;6.792;2023-07-02T09:19:32;16.15;;;5.65;;
26806;SDS011;14380;49.910;6.792;2023-07-02T09:21:59;11.20;;;4.50;;
26806;SDS011;14380;49.910;6.792;2023-07-02T09:24:26;14.25;;;5.40;;
26806;SDS011;14380;49.910;6.792;2023-07-02T09:26:55;13.98;;;5.53;;
26806;SDS011;14380;49.910;6.792;2023-07-02T09:29:24;10.63;;;5.03;;
26806;SDS011;14380;49.910;6.792;2023-07-02T09:31:53;10.73;;;4.30;;
26806;SDS011;14380;49.910;6.792;2023-07-02T09:34:25;9.05;;;3.67;;
26806;SDS011;14380;49.910;6.792;2023-07-02T09:36:53;8.93;;;4.13;;
26806;SDS011;14380;49.910;6.792;2023-07-02T09:39:20;12.00;;;4.22;;
26806;SDS011;14380;49.910;6.792;2023-07-02T09:41:51;10.07;;;4.88;;
26806;SDS011;14380;49.910;6.792;2023-07-02T09:44:18;10.63;;;5.05;;
26806;SDS011;14380;49.910;6.792;2023-07-02T09:46:46;14.02;;;4.75;;
26806;SDS011;14380;49.910;6.792;2023-07-02T09:49:20;11.15;;;4.88;;
26806;SDS011;14380;49.910;6.792;2023-07-02T09:51:48;8.93;;;4.97;;
26806;SDS011;14380;49.910;6.792;2023-07-02T09:54:16;12.18;;;6.00;;
26806;SDS011;14380;49.910;6.792;2023-07-02T09:56:45;10.15;;;4.22;;
26806;SDS011;14380;49.910;6.792;2023-07-02T09:59:13;12.38;;;4.82;;
26806;SDS011;14380;49.910;6.792;2023-07-02T10:01:40;9.75;;;4.70;;
26806;SDS011;14380;49.910;6.792;2023-07-02T10:04:12;9.68;;;4.47;;
26806;SDS011;14380;49.910;6.792;2023-07-02T10:06:47;10.75;;;4.30;;
26806;SDS011;14380;49.910;6.792;2023-07-02T10:11:42;10.48;;;4.22;;
26806;SDS011;14380;49.910;6.792;2023-07-02T10:14:09;9.88;;;4.65;;
26806;SDS011;14380;49.910;6.792;2023-07-02T10:16:48;5.78;;;2.85;;
26806;SDS011;14380;49.910;6.792;2023-07-02T10:19:15;7.82;;;3.97;;
26806;SDS011;14380;49.910;6.792;2023-07-02T10:21:42;8.90;;;3.88;;
26806;SDS011;14380;49.910;6.792;2023-07-02T10:24:12;9.30;;;4.70;;
26806;SDS011;14380;49.910;6.792;2023-07-02T10:26:51;12.45;;;5.13;;
26806;SDS011;14380;49.910;6.792;2023-07-02T10:29:18;9.40;;;4.82;;
26806;SDS011;14380;49.910;6.792;2023-07-02T10:31:48;16.83;;;4.57;;
26806;SDS011;14380;49.910;6.792;2023-07-02T10:34:14;11.18;;;5.25;;
26806;SDS011;14380;49.910;6.792;2023-07-02T10:36:41;10.75;;;4.25;;
26806;SDS011;14380;49.910;6.792;2023-07-02T10:39:08;10.38;;;4.05;;
26806;SDS011;14380;49.910;6.792;2023-07-02T10:41:36;7.68;;;4.22;;
26806;SDS011;14380;49.910;6.792;2023-07-02T10:44:06;10.60;;;4.38;;
26806;SDS011;14380;49.910;6.792;2023-07-02T10:46:34;10.95;;;4.10;;
26806;SDS011;14380;49.910;6.792;2023-07-02T10:49:00;8.30;;;3.80;;
26806;SDS011;14380;49.910;6.792;2023-07-02T10:51:27;7.30;;;3.65;;
26806;SDS011;14380;49.910;6.792;2023-07-02T10:53:57;8.05;;;3.90;;
26806;SDS011;14380;49.910;6.792;2023-07-02T10:56:25;7.57;;;3.78;;
26806;SDS011;14380;49.910;6.792;2023-07-02T10:58:53;10.05;;;4.13;;
26806;SDS011;14380;49.910;6.792;2023-07-02T11:01:24;7.82;;;4.13;;
26806;SDS011;14380;49.910;6.792;2023-07-02T11:03:58;8.00;;;4.00;;
26806;SDS011;14380;49.910;6.792;2023-07-02T11:06:26;10.60;;;3.88;;
26806;SDS011;14380;49.910;6.792;2023-07-02T11:08:53;7.47;;;3.75;;
26806;SDS011;14380;49.910;6.792;2023-07-02T11:11:21;10.38;;;3.63;;
26806;SDS011;14380;49.910;6.792;2023-07-02T11:13:48;8.75;;;3.53;;
26806;SDS011;14380;49.910;6.792;2023-07-02T11:16:21;9.65;;;4.47;;
26806;SDS011;14380;49.910;6.792;2023-07-02T11:18:51;6.78;;;3.58;;
26806;SDS011;14380;49.910;6.792;2023-07-02T11:21:18;7.43;;;3.90;;
26806;SDS011;14380;49.910;6.792;2023-07-02T11:23:45;6.90;;;3.15;;
26806;SDS011;14380;49.910;6.792;2023-07-02T11:26:12;8.02;;;3.70;;
26806;SDS011;14380;49.910;6.792;2023-07-02T11:28:47;8.40;;;3.67;;
26806;SDS011;14380;49.910;6.792;2023-07-02T11:31:25;7.20;;;3.67;;
26806;SDS011;14380;49.910;6.792;2023-07-02T11:33:52;11.80;;;5.32;;
26806;SDS011;14380;49.910;6.792;2023-07-02T11:36:20;9.40;;;4.18;;
26806;SDS011;14380;49.910;6.792;2023-07-02T11:38:48;8.27;;;4.10;;
26806;SDS011;14380;49.910;6.792;2023-07-02T11:41:15;9.05;;;3.67;;
26806;SDS011;14380;49.910;6.792;2023-07-02T11:43:42;11.05;;;4.22;;
26806;SDS011;14380;49.910;6.792;2023-07-02T11:46:08;8.02;;;3.15;;
26806;SDS011;14380;49.910;6.792;2023-07-02T11:48:36;5.03;;;2.85;;
26806;SDS011;14380;49.910;6.792;2023-07-02T11:51:03;9.93;;;4.30;;
26806;SDS011;14380;49.910;6.792;2023-07-02T11:53:30;7.68;;;3.97;;
26806;SDS011;14380;49.910;6.792;2023-07-02T11:55:56;9.75;;;4.20;;
26806;SDS011;14380;49.910;6.792;2023-07-02T11:58:23;8.45;;;3.60;;
26806;SDS011;14380;49.910;6.792;2023-07-02T12:00:49;11.05;;;4.88;;
26806;SDS011;14380;49.910;6.792;2023-07-02T12:03:16;8.60;;;3.92;;
26806;SDS011;14380;49.910;6.792;2023-07-02T12:05:44;10.50;;;4.57;;
26806;SDS011;14380;49.910;6.792;2023-07-02T12:08:10;8.73;;;4.00;;
26806;SDS011;14380;49.910;6.792;2023-07-02T12:10:37;5.45;;;3.03;;
26806;SDS011;14380;49.910;6.792;2023-07-02T12:13:03;6.32;;;3.10;;
26806;SDS011;14380;49.910;6.792;2023-07-02T12:15:30;8.98;;;3.42;;
26806;SDS011;14380;49.910;6.792;2023-07-02T12:17:56;7.38;;;3.63;;
26806;SDS011;14380;49.910;6.792;2023-07-02T12:20:23;7.50;;;3.83;;
26806;SDS011;14380;49.910;6.792;2023-07-02T12:22:51;10.80;;;4.18;;
26806;SDS011;14380;49.910;6.792;2023-07-02T12:25:18;11.27;;;4.00;;
26806;SDS011;14380;49.910;6.792;2023-07-02T12:27:45;10.05;;;5.03;;
26806;SDS011;14380;49.910;6.792;2023-07-02T12:30:11;10.23;;;3.63;;
26806;SDS011;14380;49.910;6.792;2023-07-02T12:32:42;7.45;;;3.92;;
26806;SDS011;14380;49.910;6.792;2023-07-02T12:35:08;8.82;;;3.70;;
26806;SDS011;14380;49.910;6.792;2023-07-02T12:37:42;8.45;;;3.85;;
26806;SDS011;14380;49.910;6.792;2023-07-02T12:40:10;9.55;;;3.65;;
26806;SDS011;14380;49.910;6.792;2023-07-02T12:42:37;7.30;;;3.97;;
26806;SDS011;14380;49.910;6.792;2023-07-02T12:45:05;7.47;;;3.60;;
26806;SDS011;14380;49.910;6.792;2023-07-02T12:47:32;12.05;;;4.60;;
26806;SDS011;14380;49.910;6.792;2023-07-02T12:49:59;7.70;;;3.83;;
26806;SDS011;14380;49.910;6.792;2023-07-02T12:52:25;6.60;;;3.15;;
26806;SDS011;14380;49.910;6.792;2023-07-02T12:54:52;6.18;;;3.42;;
26806;SDS011;14380;49.910;6.792;2023-07-02T12:57:20;8.52;;;3.92;;
26806;SDS011;14380;49.910;6.792;2023-07-02T12:59:46;10.55;;;4.13;;
26806;SDS011;14380;49.910;6.792;2023-07-02T13:02:13;10.65;;;4.70;;
26806;SDS011;14380;49.910;6.792;2023-07-02T13:04:39;7.53;;;3.97;;
26806;SDS011;14380;49.910;6.792;2023-07-02T13:07:06;6.13;;;3.22;;
26806;SDS011;14380;49.910;6.792;2023-07-02T13:09:32;9.23;;;3.65;;
26806;SDS011;14380;49.910;6.792;2023-07-02T13:11:59;7.22;;;3.20;;
26806;SDS011;14380;49.910;6.792;2023-07-02T13:14:27;7.68;;;3.60;;
26806;SDS011;14380;49.910;6.792;2023-07-02T13:16:54;11.60;;;4.05;;
26806;SDS011;14380;49.910;6.792;2023-07-02T13:19:20;6.22;;;2.97;;
26806;SDS011;14380;49.910;6.792;2023-07-02T13:21:47;6.35;;;3.17;;
26806;SDS011;14380;49.910;6.792;2023-07-02T13:24:13;10.32;;;3.55;;
26806;SDS011;14380;49.910;6.792;2023-07-02T13:26:40;6.63;;;3.40;;
26806;SDS011;14380;49.910;6.792;2023-07-02T13:29:06;7.53;;;3.38;;
26806;SDS011;14380;49.910;6.792;2023-07-02T13:31:34;10.55;;;3.28;;
26806;SDS011;14380;49.910;6.792;2023-07-02T13:34:01;6.65;;;3.03;;
26806;SDS011;14380;49.910;6.792;2023-07-02T13:36:27;10.13;;;3.78;;
26806;SDS011;14380;49.910;6.792;2023-07-02T13:38:54;6.47;;;3.60;;
26806;SDS011;14380;49.910;6.792;2023-07-02T13:41:21;7.10;;;3.15;;
26806;SDS011;14380;49.910;6.792;2023-07-02T13:43:47;7.10;;;3.67;;
26806;SDS011;14380;49.910;6.792;2023-07-02T13:46:14;5.55;;;3.25;;
26806;SDS011;14380;49.910;6.792;2023-07-02T13:48:42;5.10;;;3.15;;
26806;SDS011;14380;49.910;6.792;2023-07-02T13:51:08;6.07;;;3.30;;
26806;SDS011;14380;49.910;6.792;2023-07-02T13:53:35;7.53;;;2.70;;
26806;SDS011;14380;49.910;6.792;2023-07-02T13:56:02;6.88;;;3.72;;
26806;SDS011;14380;49.910;6.792;2023-07-02T14:01:24;8.80;;;3.42;;
26806;SDS011;14380;49.910;6.792;2023-07-02T14:03:51;7.75;;;3.05;;
26806;SDS011;14380;49.910;6.792;2023-07-02T14:06:18;8.57;;;3.40;;
26806;SDS011;14380;49.910;6.792;2023-07-02T14:08:45;8.15;;;3.72;;
26806;SDS011;14380;49.910;6.792;2023-07-02T14:11:11;11.90;;;4.65;;
26806;SDS011;14380;49.910;6.792;2023-07-02T14:13:38;7.85;;;2.90;;
26806;SDS011;14380;49.910;6.792;2023-07-02T14:16:06;6.10;;;3.05;;
26806;SDS011;14380;49.910;6.792;2023-07-02T14:18:32;6.75;;;2.92;;
26806;SDS011;14380;49.910;6.792;2023-07-02T14:20:59;5.90;;;3.08;;
26806;SDS011;14380;49.910;6.792;2023-07-02T14:23:26;7.78;;;2.95;;
26806;SDS011;14380;49.910;6.792;2023-07-02T14:25:53;7.13;;;3.58;;
26806;SDS011;14380;49.910;6.792;2023-07-02T14:28:19;5.80;;;2.90;;
26806;SDS011;14380;49.910;6.792;2023-07-02T14:30:46;11.55;;;3.90;;
26806;SDS011;14380;49.910;6.792;2023-07-02T14:33:14;7.93;;;4.55;;
26806;SDS011;14380;49.910;6.792;2023-07-02T14:35:41;10.43;;;4.20;;
26806;SDS011;14380;49.910;6.792;2023-07-02T14:38:07;9.57;;;3.13;;
26806;SDS011;14380;49.910;6.792;2023-07-02T14:40:34;9.93;;;4.22;;
26806;SDS011;14380;49.910;6.792;2023-07-02T14:43:00;6.85;;;4.07;;
26806;SDS011;14380;49.910;6.792;2023-07-02T14:45:29;8.43;;;3.55;;
26806;SDS011;14380;49.910;6.792;2023-07-02T14:47:55;6.28;;;2.70;;
26806;SDS011;14380;49.910;6.792;2023-07-02T14:50:26;8.93;;;3.92;;
26806;SDS011;14380;49.910;6.792;2023-07-02T14:52:53;4.78;;;2.72;;